Time;durP1;ratioP1;P1;durP2;ratioP2;P2;SDS_P1;SDS_P2;PMS_P1;PMS_P2;Temp;Humidity;BMP_temperature;BMP_pressure;BME280_temperature;BME280_humidity;BME280_pressure;Samples;Min_cycle;Max_cycle;Signal;HPM_P1;HPM_P2
2022/06/25 00:02:10;;;;;;;9.77;7.22;;;;;;;18.58;100.00;-25590.22;5091908;28;20399;-77
2022/06/25 00:07:20;;;;;;;9.43;6.80;;;;;;;18.50;100.00;-25587.88;5094539;28;20043;-76
2022/06/25 00:09:45;;;;;;;8.30;7.35;;;;;;;18.47;100.00;-25587.16;5092530;28;20029;-79
2022/06/25 00:14:54;;;;;;;9.15;7.40;;;;;;;18.42;100.00;-25585.56;5093121;28;20149;-80
2022/06/25 00:17:22;;;;;;;8.73;7.10;;;;;;;18.48;100.00;-25587.44;5091210;28;20036;-76
2022/06/25 00:19:48;;;;;;;10.18;7.18;;;;;;;18.49;100.00;-25587.59;5091886;28;20024;-77
2022/06/25 00:22:13;;;;;;;8.82;6.63;;;;;;;18.49;100.00;-25587.59;5092019;28;20161;-79
2022/06/25 00:24:39;;;;;;;11.13;7.10;;;;;;;18.43;100.00;-25586.00;5075497;28;20105;-78
2022/06/25 00:27:05;;;;;;;8.88;6.50;;;;;;;18.43;100.00;-25586.00;5058964;28;20051;-80
2022/06/25 00:29:31;;;;;;;11.80;6.95;;;;;;;18.44;100.00;-25586.31;5092312;28;20480;-79
2022/06/25 00:31:56;;;;;;;10.90;6.55;;;;;;;18.42;100.00;-25585.72;5092132;28;20085;-77
2022/06/25 00:34:26;;;;;;;8.55;6.25;;;;;;;18.38;100.00;-25584.41;5092513;28;20426;-80
2022/06/25 00:36:52;;;;;;;7.97;6.13;;;;;;;18.34;100.00;-25583.25;5092193;28;20024;-80
2022/06/25 00:39:17;;;;;;;11.43;6.45;;;;;;;18.32;100.00;-25582.81;5092090;28;20034;-79
2022/06/25 00:41:43;;;;;;;8.70;6.85;;;;;;;18.28;100.00;-25581.81;5092252;28;20036;-78
2022/06/25 00:44:16;;;;;;;8.45;6.38;;;;;;;18.31;100.00;-25582.53;5091465;28;20494;-78
2022/06/25 00:46:46;;;;;;;9.32;6.18;;;;;;;18.31;100.00;-25582.53;5091384;28;20124;-81
2022/06/25 00:49:11;;;;;;;8.80;6.10;;;;;;;18.25;100.00;-25580.81;5093411;28;20380;-76
2022/06/25 00:51:39;;;;;;;9.93;6.00;;;;;;;18.20;100.00;-25579.50;5092387;28;20023;-77
2022/06/25 00:54:20;;;;;;;9.50;7.00;;;;;;;18.19;100.00;-25579.22;5092070;28;20028;-78
2022/06/25 00:56:50;;;;;;;8.52;5.97;;;;;;;18.17;100.00;-25578.50;5091799;28;20101;-80
2022/06/25 00:59:26;;;;;;;8.13;6.40;;;;;;;18.10;100.00;-25576.75;5087770;28;20036;-81
2022/06/25 01:01:51;;;;;;;7.70;6.00;;;;;;;18.06;100.00;-25575.44;5091545;28;20491;-80
2022/06/25 01:04:23;;;;;;;8.73;5.60;;;;;;;18.03;100.00;-25574.56;5091914;28;20024;-76
2022/06/25 01:06:48;;;;;;;8.27;5.97;;;;;;;18.01;100.00;-25574.00;5091499;28;20056;-81
2022/06/25 01:09:14;;;;;;;9.65;5.78;;;;;;;18.03;100.00;-25574.72;5091585;28;20473;-81
2022/06/25 01:11:39;;;;;;;8.68;6.18;;;;;;;18.00;100.00;-25573.72;5091737;28;20114;-77
2022/06/25 01:14:09;;;;;;;10.32;5.57;;;;;;;17.96;100.00;-25572.69;5091395;28;20024;-80
2022/06/25 01:16:35;;;;;;;8.50;5.53;;;;;;;17.91;100.00;-25571.41;5090450;28;20050;-80
2022/06/25 01:19:11;;;;;;;9.77;6.00;;;;;;;17.87;100.00;-25570.22;5091564;28;20028;-81
2022/06/25 01:21:38;;;;;;;10.57;6.25;;;;;;;17.85;100.00;-25569.66;5092856;28;20032;-81
2022/06/25 01:24:08;;;;;;;9.48;5.38;;;;;;;17.80;100.00;-25568.19;5090836;28;20039;-79
2022/06/25 01:26:41;;;;;;;11.10;5.50;;;;;;;17.79;100.00;-25567.75;5090613;28;20044;-81
2022/06/25 01:29:08;;;;;;;12.63;5.72;;;;;;;17.72;100.00;-25565.88;5091145;28;20036;-80
2022/06/25 01:31:34;;;;;;;10.35;5.20;;;;;;;17.75;100.00;-25566.75;5091276;28;20452;-81
2022/06/25 01:34:06;;;;;;;8.00;5.50;;;;;;;17.76;100.00;-25567.19;5091023;28;20020;-80
2022/06/25 01:36:32;;;;;;;8.15;5.00;;;;;;;17.77;100.00;-25567.34;5090140;28;20089;-81
2022/06/25 01:38:57;;;;;;;7.82;4.88;;;;;;;17.71;100.00;-25565.75;5091772;28;20035;-77
2022/06/25 01:41:22;;;;;;;8.35;4.97;;;;;;;17.72;100.00;-25565.88;5091417;28;20339;-79
2022/06/25 01:43:48;;;;;;;7.75;4.75;;;;;;;17.66;100.00;-25564.16;5090800;28;20020;-79
2022/06/25 01:46:15;;;;;;;6.25;4.82;;;;;;;17.62;100.00;-25563.00;5090998;28;20075;-78
2022/06/25 01:48:40;;;;;;;7.43;4.75;;;;;;;17.66;100.00;-25564.16;5089907;28;20084;-77
2022/06/25 01:51:06;;;;;;;6.70;4.60;;;;;;;17.59;100.00;-25562.25;5088649;28;20028;-77
2022/06/25 01:53:31;;;;;;;8.00;4.57;;;;;;;17.58;100.00;-25561.97;5090312;28;20028;-77
2022/06/25 01:55:57;;;;;;;7.82;4.35;;;;;;;17.56;100.00;-25561.53;5090837;28;20050;-76
2022/06/25 01:58:23;;;;;;;6.97;4.55;;;;;;;17.54;100.00;-25560.81;5090464;28;20173;-75
2022/06/25 02:00:49;;;;;;;6.70;4.35;;;;;;;17.49;100.00;-25559.38;5090476;28;20032;-77
2022/06/25 02:03:18;;;;;;;9.82;4.75;;;;;;;17.46;100.00;-25558.63;5106935;28;20483;-78
2022/06/25 02:05:58;;;;;;;8.18;4.55;;;;;;;17.46;100.00;-25558.63;5090626;28;20067;-81
2022/06/25 02:08:33;;;;;;;7.22;4.22;;;;;;;17.44;100.00;-25558.06;5090416;28;20055;-78
2022/06/25 02:11:18;;;;;;;8.10;4.28;;;;;;;17.42;100.00;-25557.47;5091837;28;20046;-79
2022/06/25 02:13:46;;;;;;;8.45;4.35;;;;;;;17.42;100.00;-25557.47;5090555;28;20020;-78
2022/06/25 02:16:15;;;;;;;6.65;4.35;;;;;;;17.46;100.00;-25558.63;5089929;28;20036;-78
2022/06/25 02:18:40;;;;;;;6.70;4.22;;;;;;;17.47;100.00;-25558.94;5089955;28;20444;-76
2022/06/25 02:21:06;;;;;;;9.13;4.20;;;;;;;17.45;100.00;-25558.34;5090721;28;20048;-79
2022/06/25 02:23:32;;;;;;;7.03;3.90;;;;;;;17.47;100.00;-25558.78;5090448;28;20039;-75
2022/06/25 02:25:59;;;;;;;6.15;3.88;;;;;;;17.44;100.00;-25558.06;5091173;28;20069;-78
2022/06/25 02:28:25;;;;;;;6.43;4.22;;;;;;;17.36;100.00;-25555.75;5090312;28;20464;-76
2022/06/25 02:30:50;;;;;;;12.90;4.32;;;;;;;17.34;100.00;-25555.31;5089843;28;20104;-79
2022/06/25 02:33:30;;;;;;;7.03;4.18;;;;;;;17.31;100.00;-25554.44;5069809;28;20427;-76
2022/06/25 02:35:56;;;;;;;10.43;4.25;;;;;;;17.32;100.00;-25554.59;5080663;28;20030;-77
2022/06/25 02:38:22;;;;;;;8.38;4.03;;;;;;;17.26;100.00;-25552.84;5091929;28;20070;-78
2022/06/25 02:40:49;;;;;;;9.55;4.45;;;;;;;17.27;100.00;-25553.28;5094084;28;20016;-78
2022/06/25 02:43:17;;;;;;;7.72;3.97;;;;;;;17.27;100.00;-25553.28;5093693;28;20039;-77
2022/06/25 02:45:43;;;;;;;7.40;4.10;;;;;;;17.23;100.00;-25552.25;5094958;28;20020;-77
2022/06/25 02:48:09;;;;;;;8.18;4.22;;;;;;;17.20;100.00;-25551.41;5095421;28;20100;-79
2022/06/25 02:50:35;;;;;;;9.50;4.22;;;;;;;17.22;100.00;-25551.97;5096010;28;20065;-78
2022/06/25 02:53:04;;;;;;;8.50;4.45;;;;;;;17.23;100.00;-25552.13;5094730;28;20039;-82
2022/06/25 03:00:58;;;;;;;7.88;4.07;;;;;;;17.13;100.00;-25549.38;5097401;28;20137;-81
2022/06/25 03:03:24;;;;;;;7.38;4.20;;;;;;;17.11;100.00;-25548.63;5094205;28;20590;-82
2022/06/25 03:05:50;;;;;;;7.97;4.63;;;;;;;17.12;100.00;-25548.94;5094333;28;20419;-78
2022/06/25 03:08:15;;;;;;;8.98;4.20;;;;;;;17.17;100.00;-25550.38;5093647;28;20042;-79
2022/06/25 03:10:41;;;;;;;7.80;4.43;;;;;;;17.16;100.00;-25550.22;5093499;28;20024;-77
2022/06/25 03:13:06;;;;;;;8.63;4.55;;;;;;;17.23;100.00;-25552.13;5093791;28;20433;-80
2022/06/25 03:15:32;;;;;;;9.88;4.32;;;;;;;17.25;100.00;-25552.69;5093412;28;20024;-77
2022/06/25 03:17:57;;;;;;;7.85;3.97;;;;;;;17.27;100.00;-25553.28;5094292;28;20028;-80
2022/06/25 03:20:24;;;;;;;8.48;4.50;;;;;;;17.30;100.00;-25554.00;5095039;28;20020;-81
2022/06/25 03:22:51;;;;;;;8.63;4.45;;;;;;;17.37;100.00;-25556.03;5092400;28;20484;-79
2022/06/25 03:25:16;;;;;;;9.50;4.80;;;;;;;17.40;100.00;-25556.91;5093482;28;20024;-76
2022/06/25 03:27:42;;;;;;;9.32;4.50;;;;;;;17.45;100.00;-25558.19;5094222;28;20055;-80
2022/06/25 03:30:07;;;;;;;11.00;4.18;;;;;;;17.49;100.00;-25559.50;5092778;28;20028;-79
2022/06/25 03:32:33;;;;;;;10.63;4.70;;;;;;;17.50;100.00;-25559.66;5093298;28;20036;-78
2022/06/25 03:34:58;;;;;;;7.90;4.18;;;;;;;17.57;100.00;-25561.84;5093251;28;20024;-81
2022/06/25 03:37:24;;;;;;;8.07;3.90;;;;;;;17.62;100.00;-25563.13;5093590;28;20023;-76
2022/06/25 03:39:49;;;;;;;8.73;4.13;;;;;;;17.66;100.00;-25564.16;5075300;28;20074;-80
2022/06/25 03:42:16;;;;;;;6.85;4.18;;;;;;;17.66;100.00;-25564.28;5076598;28;20099;-79
2022/06/25 03:44:43;;;;;;;6.10;3.45;;;;;;;17.71;100.00;-25565.59;5093686;28;20067;-80
2022/06/25 03:47:08;;;;;;;6.45;3.45;;;;;;;17.73;100.00;-25566.19;5094008;28;20455;-80
2022/06/25 03:49:34;;;;;;;7.35;3.13;;;;;;;17.80;100.00;-25568.19;5093073;28;20115;-79
2022/06/25 03:51:59;;;;;;;6.13;3.35;;;;;;;18.07;100.00;-25575.88;5093574;28;20081;-78
2022/06/25 03:54:26;;;;;;;5.32;2.88;;;;;;;18.38;100.00;-25584.56;5110114;28;20040;-78
2022/06/25 03:56:51;;;;;;;6.57;2.92;;;;;;;18.44;100.00;-25586.16;5090782;28;20097;-76
2022/06/25 03:59:17;;;;;;;6.35;2.83;;;;;;;18.54;100.00;-25588.91;5093231;28;20032;-81
2022/06/25 04:01:42;;;;;;;5.47;2.42;;;;;;;19.17;100.00;-25273.91;5094076;28;20039;-81
2022/06/25 04:04:12;;;;;;;5.90;2.33;;;;;;;20.06;100.00;-18002.69;5092728;28;20028;-80
2022/06/25 04:06:37;;;;;;;4.78;2.42;;;;;;;20.84;100.00;-4030.88;5092567;28;20024;-79
2022/06/25 04:09:03;;;;;;;4.65;2.22;;;;;;;20.68;100.00;15693.91;5094030;28;20035;-78
2022/06/25 04:11:29;;;;;;;5.35;2.30;;;;;;;20.61;100.00;25759.03;5094620;28;20020;-82
2022/06/25 04:14:00;;;;;;;5.30;2.33;;;;;;;19.74;100.00;25042.31;5093523;28;20410;-79
2022/06/25 04:16:26;;;;;;;6.70;2.17;;;;;;;19.43;100.00;12638.25;5094088;28;20082;-80
2022/06/25 04:18:51;;;;;;;5.45;2.30;;;;;;;19.06;100.00;4616.94;5092919;28;20492;-79
2022/06/25 04:21:17;;;;;;;4.95;2.67;;;;;;;18.86;100.00;-2712.00;5093847;28;20040;-80
2022/06/25 04:23:46;;;;;;;8.55;2.53;;;;;;;18.93;100.00;-8362.91;5092909;28;20051;-78
2022/06/25 04:26:12;;;;;;;5.38;2.47;;;;;;;20.03;100.00;-7698.41;5093780;28;20093;-80
2022/06/25 04:31:21;;;;;;;7.80;2.70;;;;;;;20.03;100.00;10650.72;5095442;28;20625;-79
2022/06/25 04:33:48;;;;;;;6.03;2.25;;;;;;;20.34;100.00;13672.03;5093816;28;20032;-78
2022/06/25 04:36:14;;;;;;;6.20;2.78;;;;;;;20.28;100.00;18024.84;5095796;28;20107;-79
2022/06/25 04:38:39;;;;;;;8.82;3.13;;;;;;;21.02;100.00;22419.59;5094987;28;20055;-78
2022/06/25 04:41:05;;;;;;;6.90;2.50;;;;;;;21.29;100.00;40961.44;5095083;28;20553;-77
2022/06/25 04:43:32;;;;;;;5.80;2.45;;;;;;;20.96;100.00;59882.53;5092666;28;20054;-78
2022/06/25 04:45:58;;;;;;;4.97;2.40;;;;;;;20.97;100.00;70070.19;5094363;28;20124;-79
2022/06/25 04:48:23;;;;;;;5.65;2.60;;;;;;;20.50;100.00;77153.53;5094767;28;20114;-78
2022/06/25 04:50:49;;;;;;;6.93;2.55;;;;;;;19.83;100.00;63825.75;5093663;28;20116;-80
2022/06/25 04:53:15;;;;;;;6.22;2.83;;;;;;;19.23;100.00;45854.84;5093774;28;20070;-79
2022/06/25 04:55:42;;;;;;;5.93;2.60;;;;;;;18.92;100.00;23994.72;5094594;28;20024;-78
2022/06/25 04:58:08;;;;;;;6.20;2.80;;;;;;;18.79;100.00;11616.13;5094358;28;20039;-80
2022/06/25 05:00:35;;;;;;;5.53;2.50;;;;;;;18.70;100.00;4943.25;5093344;28;20027;-80
2022/06/25 05:03:02;;;;;;;6.40;2.83;;;;;;;18.72;100.00;-1049.88;5093517;28;20024;-81
2022/06/25 05:05:27;;;;;;;6.57;2.53;;;;;;;18.76;100.00;-4375.41;5093739;28;20040;-79
2022/06/25 05:07:53;;;;;;;6.85;3.08;;;;;;;18.76;100.00;-6369.59;5092991;28;20492;-77
2022/06/25 05:10:18;;;;;;;6.05;2.80;;;;;;;18.85;100.00;-8694.94;5092261;28;20066;-79
2022/06/25 05:15:30;;;;;;;8.13;2.92;;;;;;;20.20;100.00;3637.41;5079676;28;20178;-76
2022/06/25 05:17:55;;;;;;;10.30;3.25;;;;;;;20.38;100.00;14008.28;5090956;28;20270;-77
2022/06/25 05:20:21;;;;;;;6.88;2.70;;;;;;;20.22;100.00;22046.44;5091667;28;20028;-76
2022/06/25 05:22:46;;;;;;;8.63;2.63;;;;;;;20.19;100.00;26744.53;5091141;28;20032;-76
2022/06/25 05:25:12;;;;;;;7.45;2.70;;;;;;;20.27;100.00;27756.66;5108237;28;20415;-77
2022/06/25 05:27:39;;;;;;;7.60;2.80;;;;;;;20.17;100.00;32120.78;5091524;28;20044;-77
2022/06/25 05:30:05;;;;;;;7.15;2.85;;;;;;;20.17;100.00;33802.81;5092519;28;20461;-77
2022/06/25 05:32:31;;;;;;;8.77;2.67;;;;;;;20.19;100.00;40539.72;5090155;28;20040;-78
2022/06/25 05:34:57;;;;;;;6.78;2.65;;;;;;;20.02;100.00;39515.97;5090807;28;20024;-80
2022/06/25 05:37:23;;;;;;;5.28;2.40;;;;;;;20.05;100.00;37160.63;5092497;28;20028;-78
2022/06/25 05:39:49;;;;;;;7.95;2.83;;;;;;;20.19;100.00;37507.28;5090501;28;20488;-77
2022/06/25 05:42:14;;;;;;;6.47;2.30;;;;;;;20.58;100.00;44957.00;5091133;28;20498;-77
2022/06/25 05:44:41;;;;;;;5.93;2.47;;;;;;;21.46;100.00;71492.44;5090273;28;20040;-78
2022/06/25 05:47:06;;;;;;;5.35;2.45;;;;;;;21.81;100.00;128125.91;5089757;28;20016;-78
2022/06/25 05:49:32;;;;;;;5.20;2.25;;;;;;;22.03;100.00;148258.34;5091789;28;20149;-76
2022/06/25 05:51:57;;;;;;;5.28;2.20;;;;;;;21.78;100.00;148196.84;5091434;28;20065;-78
2022/06/25 05:54:24;;;;;;;7.75;2.40;;;;;;;21.73;100.00;148182.72;5090616;28;20103;-78
2022/06/25 05:56:49;;;;;;;6.28;2.45;;;;;;;21.84;100.00;148212.16;5091144;28;20040;-77
2022/06/25 05:59:16;;;;;;;7.30;2.47;;;;;;;21.70;100.00;148176.28;5092176;28;20020;-78
2022/06/25 06:01:41;;;;;;;7.65;3.15;;;;;;;21.61;100.00;148153.19;5091562;28;20078;-75
2022/06/25 06:04:08;;;;;;;6.22;2.65;;;;;;;21.72;100.00;148181.44;5089921;28;20120;-77
2022/06/25 06:06:33;;;;;;;6.93;2.08;;;;;;;21.81;100.00;148203.22;5068722;28;20035;-78
2022/06/25 06:08:58;;;;;;;5.63;2.50;;;;;;;21.75;100.00;148187.81;5086173;28;20024;-79
2022/06/25 06:11:24;;;;;;;6.60;2.53;;;;;;;21.73;100.00;148183.97;5089124;28;20506;-76
2022/06/25 06:13:51;;;;;;;5.70;2.13;;;;;;;21.92;100.00;148230.16;5092597;28;20031;-77
2022/06/25 06:16:17;;;;;;;6.28;2.08;;;;;;;22.07;100.00;148267.34;5077566;28;20123;-78
2022/06/25 06:18:43;;;;;;;5.53;2.20;;;;;;;22.04;100.00;148260.94;5094487;28;20027;-77
2022/06/25 06:21:08;;;;;;;6.95;2.40;;;;;;;22.10;100.00;148275.06;5094558;28;20028;-77
2022/06/25 06:23:39;;;;;;;4.65;2.50;;;;;;;21.88;100.00;148222.44;5093567;28;20036;-77
2022/06/25 06:26:05;;;;;;;6.47;2.28;;;;;;;21.67;100.00;148169.91;5094309;28;20040;-78
2022/06/25 06:28:30;;;;;;;8.90;2.40;;;;;;;21.66;100.00;148167.31;5094626;28;20111;-80
2022/06/25 06:30:56;;;;;;;7.15;1.85;;;;;;;21.24;100.00;148060.84;5094734;28;20083;-81
2022/06/25 06:33:25;;;;;;;6.95;2.13;;;;;;;21.43;100.00;148109.56;5094481;28;20036;-78
2022/06/25 06:35:50;;;;;;;6.18;2.42;;;;;;;21.28;100.00;148072.38;5094572;28;20039;-79
2022/06/25 06:38:16;;;;;;;6.00;2.47;;;;;;;21.29;100.00;148073.69;5095090;28;20028;-80
2022/06/25 06:40:41;;;;;;;7.60;2.67;;;;;;;21.21;100.00;148053.16;5094711;28;20039;-80
2022/06/25 06:43:08;;;;;;;6.63;2.35;;;;;;;21.10;100.00;148026.22;5094285;28;20032;-80
2022/06/25 06:45:33;;;;;;;6.63;2.35;;;;;;;20.91;100.00;147980.13;5096111;28;20089;-81
2022/06/25 06:47:58;;;;;;;6.90;2.67;;;;;;;20.43;100.00;147860.91;5094078;28;20028;-79
2022/06/25 06:50:24;;;;;;;6.28;2.33;;;;;;;20.53;100.00;147230.53;5094807;28;20089;-81
2022/06/25 06:52:49;;;;;;;5.97;2.60;;;;;;;20.53;100.00;136473.69;5092115;28;20059;-80
2022/06/25 06:55:15;;;;;;;8.73;2.63;;;;;;;20.66;100.00;128911.69;5093426;28;20039;-80
2022/06/25 06:57:40;;;;;;;5.82;3.05;;;;;;;20.51;100.00;129222.72;5094182;28;20524;-78
2022/06/25 07:00:06;;;;;;;6.32;3.10;;;;;;;20.41;100.00;118874.44;5095364;28;20139;-80
2022/06/25 07:02:32;;;;;;;5.60;2.83;;;;;;;20.31;100.00;104098.00;5093203;28;20067;-79
2022/06/25 07:04:57;;;;;;;4.93;2.70;;;;;;;20.37;100.00;102738.94;5095122;28;20028;-77
2022/06/25 07:07:23;;;;;;;6.88;3.10;;;;;;;20.27;100.00;103406.63;5094429;28;20020;-79
2022/06/25 07:09:49;;;;;;;6.40;3.15;;;;;;;20.00;100.00;87301.06;5093731;28;20383;-77
2022/06/25 07:12:14;;;;;;;7.18;2.97;;;;;;;20.11;100.00;77781.22;5093360;28;20024;-76
2022/06/25 07:14:40;;;;;;;5.45;2.90;;;;;;;20.04;100.00;68598.25;5075986;28;20032;-79
2022/06/25 07:17:05;;;;;;;6.13;3.25;;;;;;;20.03;100.00;62492.28;5094702;28;20023;-76
2022/06/25 07:19:30;;;;;;;8.25;3.13;;;;;;;20.00;100.00;59440.44;5093779;28;20039;-78
2022/06/25 07:21:57;;;;;;;7.75;3.17;;;;;;;20.28;100.00;56423.13;5094370;28;20036;-80
2022/06/25 07:24:24;;;;;;;5.75;2.63;;;;;;;20.25;100.00;58451.78;5093661;28;20024;-77
2022/06/25 07:26:50;;;;;;;6.00;2.60;;;;;;;20.29;100.00;64556.00;5092965;28;20121;-77
2022/06/25 07:29:16;;;;;;;7.85;2.83;;;;;;;20.21;100.00;64885.69;5093031;28;20060;-78
2022/06/25 07:31:42;;;;;;;5.85;2.83;;;;;;;20.09;100.00;68265.06;5093925;28;20040;-75
2022/06/25 07:34:09;;;;;;;6.85;3.13;;;;;;;20.37;100.00;66940.00;5095033;28;20028;-80
2022/06/25 07:36:34;;;;;;;5.38;2.85;;;;;;;;;;5093357;28;20463;-80
2022/06/25 07:39:00;;;;;;;7.05;3.03;;;;;;;20.84;100.00;79583.09;5076858;28;20028;-79
2022/06/25 07:41:30;;;;;;;6.68;2.75;;;;;;;20.83;100.00;96313.31;5094035;28;20380;-80
2022/06/25 07:43:55;;;;;;;6.00;2.57;;;;;;;20.70;100.00;93555.47;5094873;28;20074;-81
2022/06/25 07:46:21;;;;;;;5.60;2.83;;;;;;;20.33;100.00;88375.09;5093378;28;20286;-79
2022/06/25 07:48:46;;;;;;;5.53;3.00;;;;;;;20.34;100.00;85647.81;5093567;28;20024;-81
2022/06/25 07:53:56;;;;;;;5.15;2.67;;;;;;;20.25;100.00;71000.34;5095450;28;20057;-80
2022/06/25 07:56:22;;;;;;;9.63;2.83;;;;;;;20.27;100.00;65571.84;5086614;28;20244;-80
2022/06/25 07:58:47;;;;;;;8.85;3.30;;;;;;;20.08;100.00;66567.28;5072629;28;20073;-78
2022/06/25 08:01:13;;;;;;;7.18;2.80;;;;;;;20.25;100.00;65568.84;5073286;28;20032;-78
2022/06/25 08:03:40;;;;;;;6.25;2.58;;;;;;;20.37;100.00;63887.03;5088823;28;20032;-79
2022/06/25 08:06:06;;;;;;;5.28;2.75;;;;;;;20.56;100.00;65944.13;5085772;28;20062;-77
2022/06/25 08:08:31;;;;;;;6.72;2.75;;;;;;;20.57;100.00;76141.50;5091656;28;20016;-81
2022/06/25 08:10:57;;;;;;;7.43;2.67;;;;;;;20.68;100.00;86038.66;5092250;28;20485;-77
2022/06/25 08:13:22;;;;;;;7.00;2.53;;;;;;;20.78;100.00;98701.28;5075331;28;20057;-76
2022/06/25 08:15:50;;;;;;;6.40;2.50;;;;;;;20.76;100.00;108294.16;5092419;28;20023;-77
2022/06/25 08:18:17;;;;;;;5.18;2.50;;;;;;;20.70;100.00;115493.19;5093305;28;20024;-81
2022/06/25 08:20:43;;;;;;;3.85;2.20;;;;;;;20.47;100.00;115447.69;5092212;28;20067;-77
2022/06/25 08:23:12;;;;;;;5.07;2.20;;;;;;;20.54;100.00;109625.53;5075255;28;20450;-76
2022/06/25 08:25:37;;;;;;;4.05;2.30;;;;;;;20.50;100.00;107216.81;5091323;28;20070;-77
2022/06/25 08:28:03;;;;;;;5.30;2.33;;;;;;;20.51;100.00;97627.78;5092089;28;20613;-77
2022/06/25 08:30:28;;;;;;;6.93;2.72;;;;;;;20.47;100.00;102070.28;5092323;28;20043;-76
2022/06/25 08:32:55;;;;;;;5.45;2.42;;;;;;;20.28;100.00;106148.13;5093099;28;20028;-78
2022/06/25 08:35:21;;;;;;;5.15;2.42;;;;;;;20.56;100.00;106541.38;5093102;28;20031;-76
2022/06/25 08:37:48;;;;;;;4.82;2.38;;;;;;;20.68;100.00;115833.88;5079231;28;20024;-77
2022/06/25 08:40:16;;;;;;;3.95;2.25;;;;;;;20.65;100.00;114453.19;5071387;28;20489;-76
2022/06/25 08:42:43;;;;;;;5.80;2.60;;;;;;;20.50;100.00;112020.25;5092107;28;20032;-77
2022/06/25 08:45:09;;;;;;;5.10;2.60;;;;;;;20.50;100.00;96599.97;5092092;28;20123;-78
2022/06/25 08:47:43;;;;;;;5.90;2.70;;;;;;;20.30;100.00;75084.88;5092261;28;20028;-77
2022/06/25 08:50:10;;;;;;;8.18;3.25;;;;;;;20.07;100.00;39182.91;5092755;28;20060;-79
2022/06/25 08:52:37;;;;;;;9.23;3.45;;;;;;;19.59;100.00;5628.44;5091252;28;20042;-77
2022/06/25 08:55:03;;;;;;;8.98;3.10;;;;;;;19.11;100.00;-14339.63;5091408;28;20020;-78
2022/06/25 08:57:29;;;;;;;8.13;3.03;;;;;;;18.79;100.00;-25596.00;5092244;28;20074;-79
2022/06/25 08:59:55;;;;;;;6.65;3.05;;;;;;;18.54;100.00;-25589.03;5110771;28;20032;-80
2022/06/25 09:02:21;;;;;;;9.18;3.60;;;;;;;18.68;100.00;-25592.94;5093985;28;20122;-81
2022/06/25 09:04:47;;;;;;;10.48;3.67;;;;;;;18.65;100.00;-25592.22;5093819;28;20360;-80
2022/06/25 09:07:15;;;;;;;7.60;3.53;;;;;;;18.79;100.00;-25596.00;5091075;28;20024;-81
2022/06/25 09:09:45;;;;;;;8.73;3.75;;;;;;;18.59;100.00;-25590.50;5092892;28;20024;-80
2022/06/25 09:12:13;;;;;;;7.25;3.70;;;;;;;18.82;100.00;-25596.84;5094080;28;20028;-81
2022/06/25 09:14:41;;;;;;;7.55;3.55;;;;;;;18.74;100.00;-25594.53;5093271;28;20507;-81
2022/06/25 09:17:16;;;;;;;7.47;3.80;;;;;;;18.83;100.00;-25597.28;5093843;28;20028;-79
2022/06/25 09:19:47;;;;;;;11.48;3.78;;;;;;;18.72;100.00;-25594.09;5090379;28;20020;-80
2022/06/25 09:22:17;;;;;;;5.90;3.40;;;;;;;18.68;100.00;-25592.81;5090398;28;20038;-77
2022/06/25 09:25:06;;;;;;;8.88;3.30;;;;;;;18.53;100.00;-25588.63;5093460;28;20024;-79
2022/06/25 09:27:37;;;;;;;6.05;3.42;;;;;;;18.40;100.00;-25585.00;5093667;28;20434;-80
2022/06/25 09:30:14;;;;;;;7.85;3.40;;;;;;;18.47;100.00;-25587.03;5093683;28;20035;-80
2022/06/25 09:32:58;;;;;;;7.05;3.00;;;;;;;18.39;100.00;-25584.84;5091895;28;20456;-80
2022/06/25 09:35:30;;;;;;;7.03;3.03;;;;;;;18.33;100.00;-25582.97;5090988;28;20024;-81
2022/06/25 09:38:05;;;;;;;7.97;3.20;;;;;;;18.14;100.00;-25577.63;5091170;28;20421;-81
2022/06/25 09:40:30;;;;;;;5.95;3.22;;;;;;;18.15;100.00;-25577.91;5090362;28;20032;-76
2022/06/25 09:42:57;;;;;;;8.25;3.70;;;;;;;18.06;100.00;-25575.59;5089071;28;20134;-75
2022/06/25 09:45:24;;;;;;;7.45;3.42;;;;;;;18.05;100.00;-25575.16;5090136;28;20100;-78
2022/06/25 09:47:49;;;;;;;6.65;3.25;;;;;;;18.06;100.00;-25575.59;5090395;28;20103;-76
2022/06/25 09:50:18;;;;;;;7.63;3.72;;;;;;;18.17;100.00;-25578.63;5089463;28;20547;-76
2022/06/25 09:52:52;;;;;;;7.22;3.80;;;;;;;18.11;100.00;-25577.03;5089274;28;20023;-77
2022/06/25 09:55:20;;;;;;;7.13;3.70;;;;;;;18.18;100.00;-25578.91;5090074;28;20024;-76
2022/06/25 09:57:46;;;;;;;11.55;3.80;;;;;;;18.26;100.00;-25581.09;5089412;28;20016;-77
2022/06/25 10:00:14;;;;;;;9.27;3.92;;;;;;;18.36;100.00;-25583.84;5090674;28;20059;-77
2022/06/25 10:02:48;;;;;;;7.85;3.50;;;;;;;18.69;100.00;-25593.09;5090070;28;20070;-76
2022/06/25 10:05:21;;;;;;;7.82;3.50;;;;;;;18.81;100.00;-25596.72;5074187;28;20515;-76
2022/06/25 10:07:59;;;;;;;5.78;3.33;;;;;;;18.83;100.00;-25597.13;5090339;28;20020;-76
2022/06/25 10:10:26;;;;;;;5.45;3.47;;;;;;;19.20;100.00;-25607.56;5089701;28;20107;-76
2022/06/25 10:12:54;;;;;;;5.53;3.20;;;;;;;18.99;100.00;-25601.63;5089977;28;20016;-78
2022/06/25 10:15:20;;;;;;;7.28;3.28;;;;;;;19.37;100.00;-25612.31;5091187;28;20121;-79
2022/06/25 10:17:53;;;;;;;9.85;3.67;;;;;;;19.52;100.00;-25616.50;5093512;28;20489;-77
2022/06/25 10:20:20;;;;;;;9.63;3.60;;;;;;;20.04;100.00;-25631.06;5093435;28;20120;-76
2022/06/25 10:22:49;;;;;;;6.85;3.80;;;;;;;19.98;100.00;-25629.50;5089963;28;20024;-77
2022/06/25 10:25:22;;;;;;;7.82;3.53;;;;;;;19.88;100.00;-25626.59;5091677;28;20035;-77
2022/06/25 10:27:50;;;;;;;7.18;3.55;;;;;;;19.99;100.00;-25629.63;5092159;28;20066;-77
2022/06/25 10:30:35;;;;;;;7.95;3.50;;;;;;;20.31;100.00;-25638.72;5092607;28;20459;-77
2022/06/25 10:33:02;;;;;;;7.88;3.78;;;;;;;20.76;100.00;-25651.41;5073352;28;20016;-77
2022/06/25 10:35:30;;;;;;;6.88;3.42;;;;;;;21.26;100.00;-25665.22;5089658;28;20119;-76
2022/06/25 10:38:11;;;;;;;7.00;3.30;;;;;;;20.96;100.00;-25656.88;5089413;28;20490;-77
2022/06/25 10:40:56;;;;;;;5.40;3.25;;;;;;;21.45;100.00;-25668.75;5090344;28;20012;-77
2022/06/25 10:43:41;;;;;;;5.82;3.45;;;;;;;21.07;100.00;-25326.28;5089681;28;20055;-78
2022/06/25 10:46:31;;;;;;;8.52;3.58;;;;;;;21.47;100.00;-21683.06;5089168;28;20039;-78
2022/06/25 10:49:10;;;;;;;5.65;3.40;;;;;;;21.91;100.00;-22690.06;5089436;28;20055;-77
2022/06/25 10:51:38;;;;;;;6.05;3.50;;;;;;;22.22;100.00;-12370.91;5089493;28;20036;-78
2022/06/25 10:54:22;;;;;;;7.00;3.40;;;;;;;22.25;100.00;-5693.69;5092010;28;20036;-78
2022/06/25 10:57:00;;;;;;;7.15;3.25;;;;;;;22.51;100.00;-3686.47;5093447;28;20477;-77
2022/06/25 10:59:32;;;;;;;5.50;3.55;;;;;;;22.89;100.00;-6026.00;5092190;28;20020;-81
2022/06/25 11:02:23;;;;;;;7.75;3.50;;;;;;;22.63;100.00;-6695.34;5094861;28;20028;-78
2022/06/25 11:04:53;;;;;;;5.97;3.67;;;;;;;22.33;100.00;10717.50;5095186;28;20109;-79
2022/06/25 11:07:22;;;;;;;5.13;3.10;;;;;;;22.38;100.00;20801.53;5094884;28;20035;-83
2022/06/25 11:09:56;;;;;;;6.55;3.08;;;;;;;22.69;100.00;38363.00;5084181;28;20031;-82
2022/06/25 11:12:23;;;;;;;6.32;3.50;;;;;;;22.71;100.00;45473.47;5092520;28;20020;-83
2022/06/25 11:15:04;;;;;;;6.00;3.60;;;;;;;22.51;100.00;122059.75;5090718;28;20032;-82
2022/06/25 11:17:30;;;;;;;5.40;3.05;;;;;;;22.52;100.00;88710.25;5075599;28;20017;-81
2022/06/25 11:20:22;;;;;;;6.13;3.45;;;;;;;22.47;100.00;148367.47;5078580;28;20020;-83
2022/06/25 11:22:51;;;;;;;6.82;3.63;;;;;;;22.38;100.00;122032.09;5089495;28;20499;-81
2022/06/25 11:30:49;;;;;;;7.93;3.90;;;;;;;21.95;100.00;144564.81;5095669;28;20549;-83
2022/06/25 11:33:15;;;;;;;9.07;3.78;;;;;;;22.41;100.00;131716.00;5094125;28;20475;-85
2022/06/25 11:35:42;;;;;;;6.93;3.55;;;;;;;22.63;100.00;148408.50;5110267;28;20023;-75
2022/06/25 11:38:14;;;;;;;3.58;2.50;;;;;;;22.74;100.00;148435.44;5094106;28;20028;-80
2022/06/25 11:40:40;;;;;;;4.30;2.47;;;;;;;23.06;100.00;148515.03;5093826;28;20097;-84
2022/06/25 11:43:12;;;;;;;3.35;2.28;;;;;;;23.40;100.00;148599.75;5094283;28;20467;-83
2022/06/25 11:45:56;;;;;;;5.80;2.70;;;;;;;23.59;100.00;148648.53;5076014;28;20046;-85
2022/06/25 11:48:31;;;;;;;4.32;2.53;;;;;;;23.41;100.00;148602.31;5094182;28;20107;-77